Strona główna
METAR-TAF:

METAR-TAF

Lotnisko :

Port lotniczy Sztokholm-Arlanda

Sztokholm-Arlanda, Szwecja

Szerokość geograficzna: 59-39N, Długość geograficzna: 017-57E, wysokość: 38 m

Aktualna obserwacja pogody

Raport powstał 16 minut temu, godzina 22:50 UTC
Wiatr 9 kt od północ
Temperatura 8°C
Wilgotność 71%
Ciśnienie 1030 hPa
Widzialność 10 km lub więcej
Brak chmur poniżej 1500 m i brak chmur cumulonimbus

METAR: ESSA 302250Z 35009KT CAVOK 08/03 Q1030 NOSIG

czas: 01:06 (23:06 UTC)

Prognoza

Raport powstał 5 godziny i 36 minut temu, godzina 17:30 UTC
Prognoza ważna od 30 godzina 18 UTC do 31 godzina 18 UTC
Wiatr 12 kt od północ
Widzialność 10 km lub więcej
Brak chmur poniżej 1500 m i brak chmur cumulonimbus

TAF: ESSA 301730Z 3018/3118 01012KT CAVOK

Obserwacja i prognoza pogody dla ponad 4000 lotnisk (raport METAR i TAF).

Dostępne stacje oznaczono żółtymi i czerwonymi punktami na mapie.

Najedź kursorem aby zobaczyć nazwę stacji.

Kliknij aby zobaczyć obserwacje i prognozy pogody.

Aby zmienić mapę: kliknij na zielony przycisk z czarnym krzyżykiem, aby powiększyć; na zielony przycisk z myślnikiem, aby pomniejszyć; na zielone strzałki, aby przejść do map sąsiednich.


METAR-TAF: